Time;durP1;ratioP1;P1;durP2;ratioP2;P2;SDS_P1;SDS_P2;PMS_P1;PMS_P2;Temp;Humidity;BMP_temperature;BMP_pressure;BME280_temperature;BME280_humidity;BME280_pressure;Samples;Min_cycle;Max_cycle;Signal;HPM_P1;HPM_P2
2022/03/02 00:12:07;;;;;;;15.10;11.57;;;;;;;3.10;77.47;95322.41;5075146;28;20473;-85
2022/03/02 00:14:34;;;;;;;20.20;13.67;;;;;;;3.13;77.57;95326.59;5075405;28;20505;-84
2022/03/02 00:17:01;;;;;;;12.93;10.80;;;;;;;3.15;78.16;95325.63;5074904;28;20445;-84
2022/03/02 00:19:28;;;;;;;17.37;11.77;;;;;;;3.09;78.33;95306.03;5074598;28;20523;-84
2022/03/02 00:21:55;;;;;;;17.47;11.80;;;;;;;3.10;78.07;95305.09;5074578;28;20851;-84
2022/03/02 00:24:22;;;;;;;18.40;11.80;;;;;;;3.18;78.12;95309.94;5075249;28;20441;-85
2022/03/02 00:26:49;;;;;;;15.00;11.13;;;;;;;3.17;78.51;95313.41;5074714;28;20528;-84
2022/03/02 00:29:18;;;;;;;28.33;12.57;;;;;;;3.17;77.53;95312.56;5074704;28;20455;-84
2022/03/02 00:31:46;;;;;;;18.70;12.20;;;;;;;3.10;76.96;95294.72;5075049;28;20429;-85
2022/03/02 00:34:13;;;;;;;15.93;10.53;;;;;;;3.16;77.48;95297.94;5074742;28;20445;-86
2022/03/02 00:36:40;;;;;;;20.87;13.20;;;;;;;3.13;76.56;95282.53;5074587;28;21008;-84
2022/03/02 01:06:05;;;;;;;21.90;13.03;;;;;;;3.01;78.04;95258.91;5072938;28;20614;-84
2022/03/02 01:08:32;;;;;;;19.43;12.60;;;;;;;2.95;77.50;95261.81;5073658;28;20796;-84
2022/03/02 01:10:59;;;;;;;19.70;12.30;;;;;;;2.94;77.37;95260.13;5073710;28;20445;-84
2022/03/02 01:13:26;;;;;;;25.87;13.93;;;;;;;2.95;77.53;95260.97;5074475;28;20455;-85
2022/03/02 01:15:53;;;;;;;22.17;14.50;;;;;;;2.85;77.14;95255.38;5073781;28;20447;-84
2022/03/02 01:18:20;;;;;;;21.50;14.93;;;;;;;2.86;77.54;95245.84;5074090;28;20433;-84
2022/03/02 01:20:47;;;;;;;22.10;14.00;;;;;;;2.84;77.14;95252.84;5074024;28;20490;-85
2022/03/02 01:23:16;;;;;;;21.20;15.07;;;;;;;2.79;77.63;95242.72;5074508;28;20451;-84
2022/03/02 01:29:05;;;;;;;24.92;15.63;;;;;;;2.73;77.44;95235.25;5073788;28;20399;-83
2022/03/02 01:31:32;;;;;;;24.53;15.27;;;;;;;2.73;77.39;95235.25;5073918;28;20266;-85
2022/03/02 01:33:59;;;;;;;24.73;15.40;;;;;;;2.71;76.79;95239.66;5073761;28;20463;-82
2022/03/02 01:36:27;;;;;;;24.47;16.50;;;;;;;2.66;76.94;95233.88;5073548;28;20439;-84
2022/03/02 01:38:55;;;;;;;24.58;16.25;;;;;;;2.58;77.52;95225.63;5073551;28;20538;-84
2022/03/02 01:41:24;;;;;;;29.77;17.43;;;;;;;2.61;77.40;95228.09;5073911;28;20665;-84
2022/03/02 01:43:52;;;;;;;29.00;17.80;;;;;;;2.55;77.82;95225.78;5073858;28;20478;-84
2022/03/02 01:46:20;;;;;;;31.80;18.33;;;;;;;2.57;77.55;95222.19;5073498;28;20432;-84
2022/03/02 01:48:48;;;;;;;27.17;17.43;;;;;;;2.52;77.17;95223.31;5073900;28;20528;-84
2022/03/02 02:08:05;;;;;;;29.50;18.40;;;;;;;2.31;76.86;95212.25;5072551;28;20518;-83
2022/03/02 02:10:32;;;;;;;29.50;18.23;;;;;;;2.29;77.42;95211.47;5073495;28;20440;-84
2022/03/02 02:12:59;;;;;;;25.30;17.53;;;;;;;2.24;77.98;95210.84;5073233;28;20944;-85
2022/03/02 02:15:26;;;;;;;29.30;17.90;;;;;;;2.21;77.67;95205.81;5076988;28;20454;-84
2022/03/02 02:17:53;;;;;;;24.43;16.20;;;;;;;2.09;77.43;95195.16;5077734;28;20433;-85
2022/03/02 02:20:20;;;;;;;26.83;17.20;;;;;;;2.13;78.06;95201.84;5077491;28;20448;-84
2022/03/02 02:22:49;;;;;;;30.03;17.87;;;;;;;2.06;78.91;95203.06;5077476;28;20488;-84
2022/03/02 02:25:16;;;;;;;24.90;15.43;;;;;;;2.04;79.59;95207.47;5077421;28;20478;-85
2022/03/02 02:27:44;;;;;;;21.77;15.73;;;;;;;2.03;78.52;95208.38;5077241;28;20458;-84
2022/03/02 02:30:12;;;;;;;26.33;15.30;;;;;;;1.99;78.84;95209.41;5077299;28;20486;-84
2022/03/02 02:32:40;;;;;;;22.90;13.67;;;;;;;1.95;78.80;95204.44;5075400;28;20468;-83
2022/03/02 02:35:10;;;;;;;21.90;13.43;;;;;;;1.88;78.89;95201.31;5076987;28;20443;-84
2022/03/02 02:37:38;;;;;;;20.13;12.83;;;;;;;1.85;78.73;95204.88;5077181;28;20432;-84
2022/03/02 02:40:09;;;;;;;21.87;13.43;;;;;;;1.79;78.40;95200.00;5076753;28;20819;-84
2022/03/02 02:52:41;;;;;;;17.48;11.75;;;;;;;1.54;79.34;95195.09;5075864;28;20255;-83
2022/03/02 02:55:11;;;;;;;19.60;12.63;;;;;;;1.53;79.22;95193.41;5041639;28;20214;-84
2022/03/02 02:57:38;;;;;;;20.88;12.30;;;;;;;1.55;79.31;95206.28;5077033;28;20646;-84
2022/03/02 03:00:10;;;;;;;17.58;12.40;;;;;;;1.53;78.93;95208.09;5076813;28;20193;-85
2022/03/02 03:05:58;;;;;;;21.60;12.80;;;;;;;1.44;79.75;95203.31;5075777;28;20236;-84
2022/03/02 03:08:25;;;;;;;19.77;14.20;;;;;;;1.37;79.61;95201.91;5076156;28;20675;-84
2022/03/02 03:10:54;;;;;;;15.88;12.73;;;;;;;1.35;79.47;95203.72;5076327;28;20640;-84
2022/03/02 03:13:21;;;;;;;22.98;13.82;;;;;;;1.33;79.14;95196.03;5076703;28;20195;-84
2022/03/02 03:15:48;;;;;;;17.02;12.32;;;;;;;1.29;78.29;95204.84;5076337;28;20209;-85
2022/03/02 03:29:10;;;;;;;13.32;10.80;;;;;;;1.07;77.34;95204.06;5052821;28;20246;-85
2022/03/02 03:31:37;;;;;;;13.68;11.10;;;;;;;1.06;77.06;95204.97;5075946;28;20184;-84
2022/03/02 03:34:04;;;;;;;17.10;11.65;;;;;;;1.00;77.02;95203.50;5075877;28;20183;-84
2022/03/02 03:36:31;;;;;;;14.07;11.02;;;;;;;0.94;76.80;95193.44;5076434;28;20269;-83
2022/03/02 03:38:58;;;;;;;15.05;10.93;;;;;;;0.94;76.35;95198.59;5076113;28;20232;-85
2022/03/02 03:41:25;;;;;;;17.77;11.27;;;;;;;0.88;77.47;95207.47;5075842;28;20311;-84
2022/03/02 03:43:52;;;;;;;14.13;10.23;;;;;;;0.91;76.39;95203.91;5075720;28;20213;-84
2022/03/02 03:46:21;;;;;;;18.38;11.45;;;;;;;0.88;76.42;95198.88;5076005;28;20194;-84
2022/03/02 03:48:47;;;;;;;17.90;11.73;;;;;;;0.84;77.01;95198.13;5075649;28;20198;-83
2022/03/02 03:51:14;;;;;;;15.50;11.77;;;;;;;0.87;77.20;95198.03;5057252;28;20215;-85
2022/03/02 03:53:41;;;;;;;20.45;11.90;;;;;;;0.88;76.64;95191.97;5075569;28;20191;-84
2022/03/02 03:56:08;;;;;;;16.60;11.90;;;;;;;0.87;75.94;95192.03;5075665;28;20202;-84
2022/03/02 03:58:36;;;;;;;15.95;11.07;;;;;;;0.88;76.48;95194.53;5075733;28;20190;-84
2022/03/02 04:01:03;;;;;;;19.02;11.73;;;;;;;0.82;76.79;95187.03;5075849;28;20559;-83
2022/03/02 04:03:32;;;;;;;19.00;10.88;;;;;;;0.85;76.81;95183.47;5075546;28;20199;-85
2022/03/02 04:05:59;;;;;;;18.08;11.88;;;;;;;0.87;76.48;95189.44;5075595;28;20193;-85
2022/03/02 04:08:26;;;;;;;19.10;11.82;;;;;;;0.89;75.85;95196.22;5075499;28;20204;-84
2022/03/02 04:10:53;;;;;;;17.17;11.00;;;;;;;0.85;76.68;95196.38;5073416;28;20206;-85
2022/03/02 04:13:20;;;;;;;15.30;11.95;;;;;;;0.83;77.26;95186.13;5075378;28;20237;-84
2022/03/02 04:15:47;;;;;;;19.25;12.75;;;;;;;0.89;77.02;95190.22;5075418;28;20556;-85
2022/03/02 04:28:21;;;;;;;17.95;11.82;;;;;;;0.70;77.79;95186.72;5074004;28;20272;-85
2022/03/02 04:30:49;;;;;;;44.13;17.50;;;;;;;0.70;78.47;95189.28;5074945;28;20245;-86
2022/03/02 04:33:16;;;;;;;33.97;15.52;;;;;;;0.76;78.41;95194.19;5074743;28;20194;-88
2022/03/02 04:35:43;;;;;;;16.80;11.02;;;;;;;0.80;77.43;95190.59;5075012;28;20210;-85
2022/03/02 04:38:10;;;;;;;11.80;8.73;;;;;;;0.82;77.84;95192.19;5074418;28;20605;-85
2022/03/02 04:44:00;;;;;;;11.90;8.85;;;;;;;0.90;76.52;95189.31;5074142;28;20260;-85
2022/03/02 04:46:27;;;;;;;16.08;9.18;;;;;;;0.87;77.37;95186.84;5074698;28;20202;-87
2022/03/02 04:48:54;;;;;;;16.92;10.60;;;;;;;0.87;77.56;95173.94;5073668;28;20248;-85
2022/03/02 04:51:21;;;;;;;12.43;9.30;;;;;;;0.92;77.28;95179.75;5073112;28;20209;-82
2022/03/02 04:53:50;;;;;;;11.68;8.95;;;;;;;0.93;77.11;95176.25;5072583;28;20200;-83
2022/03/02 04:56:17;;;;;;;15.80;9.40;;;;;;;1.03;81.60;95176.69;5072725;28;20231;-84
2022/03/02 04:58:43;;;;;;;13.23;9.60;;;;;;;1.15;83.23;95171.81;5072601;28;20692;-83
2022/03/02 05:01:12;;;;;;;16.75;10.60;;;;;;;1.21;79.62;95179.34;5072812;28;20252;-83
2022/03/02 05:03:39;;;;;;;13.25;10.25;;;;;;;1.15;77.16;95171.81;5073906;28;20211;-85
2022/03/02 05:06:06;;;;;;;14.18;9.50;;;;;;;1.02;76.62;95170.69;5039467;28;20211;-86
2022/03/02 05:08:33;;;;;;;18.08;9.75;;;;;;;0.92;76.51;95165.09;5073972;28;20942;-85
2022/03/02 05:11:00;;;;;;;16.98;11.02;;;;;;;0.89;77.26;95167.81;5071801;28;20202;-84
2022/03/02 05:13:27;;;;;;;16.52;10.75;;;;;;;0.89;78.04;95169.56;5073906;28;20183;-84
2022/03/02 05:15:54;;;;;;;13.40;9.02;;;;;;;0.83;78.34;95162.03;5074100;28;20194;-83
2022/03/02 05:18:22;;;;;;;10.70;8.68;;;;;;;0.77;78.59;95159.72;5073986;28;20285;-84
2022/03/02 05:21:01;;;;;;;17.10;10.85;;;;;;;0.81;78.35;95166.44;5073754;28;20203;-83
2022/03/02 05:23:29;;;;;;;17.20;10.88;;;;;;;0.75;78.92;95162.38;5073513;28;20234;-83
2022/03/02 05:25:55;;;;;;;14.13;10.85;;;;;;;0.77;78.54;95170.88;5073617;28;20603;-84
2022/03/02 05:28:22;;;;;;;13.45;9.23;;;;;;;0.79;79.06;95169.06;5073706;28;20272;-84
2022/03/02 05:30:49;;;;;;;13.77;10.68;;;;;;;0.80;79.10;95175.09;5074140;28;20235;-84
2022/03/02 05:33:16;;;;;;;13.35;9.23;;;;;;;0.83;79.02;95169.78;5073562;28;20205;-81
2022/03/02 05:35:45;;;;;;;13.38;10.85;;;;;;;0.81;79.21;95162.09;5076296;28;20183;-82
2022/03/02 05:38:11;;;;;;;24.67;11.48;;;;;;;0.90;79.31;95169.47;5075372;28;20300;-84
2022/03/02 05:40:38;;;;;;;18.48;11.65;;;;;;;0.96;79.44;95175.28;5074607;28;20192;-84
2022/03/02 05:43:05;;;;;;;26.50;15.18;;;;;;;1.07;79.22;95170.47;5073616;28;20212;-84
2022/03/02 05:45:32;;;;;;;20.25;12.50;;;;;;;1.14;78.98;95167.56;5075014;28;20214;-84
2022/03/02 05:47:59;;;;;;;21.65;12.73;;;;;;;1.29;78.66;95173.81;5074223;28;20205;-84
2022/03/02 05:50:26;;;;;;;17.23;12.85;;;;;;;1.31;78.73;95161.66;5074676;28;20639;-83
2022/03/02 05:52:55;;;;;;;20.00;12.05;;;;;;;1.45;78.86;95174.00;5074944;28;20191;-83
2022/03/02 05:55:22;;;;;;;16.48;11.88;;;;;;;1.57;78.69;95178.59;5070989;28;20214;-82
2022/03/02 05:57:49;;;;;;;19.48;13.13;;;;;;;1.59;78.85;95165.59;5073508;28;20197;-83
2022/03/02 06:00:16;;;;;;;19.80;13.30;;;;;;;1.63;79.55;95172.31;5074276;28;20183;-85
2022/03/02 06:02:43;;;;;;;22.08;13.77;;;;;;;1.76;81.68;95174.28;5073951;28;20560;-88
2022/03/02 06:05:10;;;;;;;16.60;12.38;;;;;;;1.88;81.32;95179.78;5074464;28;20216;-88
2022/03/02 06:07:37;;;;;;;21.63;13.05;;;;;;;1.98;81.77;95175.84;5073790;28;20202;-87
2022/03/02 06:10:07;;;;;;;18.58;11.60;;;;;;;2.08;81.41;95179.69;5074263;28;20204;-85
2022/03/02 06:19:17;;;;;;;16.38;12.35;;;;;;;2.22;80.33;95179.03;5072632;28;20249;-85
2022/03/02 06:21:48;;;;;;;20.60;14.30;;;;;;;2.10;80.89;95183.88;5073555;28;20208;-85
2022/03/02 06:24:15;;;;;;;16.17;12.00;;;;;;;2.16;81.04;95172.41;5065413;28;20210;-85
2022/03/02 06:26:44;;;;;;;21.20;15.60;;;;;;;2.29;80.97;95177.81;5053626;28;20197;-85
2022/03/02 06:29:12;;;;;;;34.33;21.57;;;;;;;2.19;80.79;95172.25;5054125;28;20213;-84
2022/03/02 06:35:00;;;;;;;19.48;13.18;;;;;;;2.17;80.19;95169.72;5053300;28;20505;-85
2022/03/02 06:37:27;;;;;;;24.73;12.90;;;;;;;2.16;80.55;95167.22;5052649;28;20203;-85
2022/03/02 06:39:54;;;;;;;17.80;11.00;;;;;;;2.20;79.75;95168.75;5052463;28;20851;-85
2022/03/02 06:42:25;;;;;;;17.57;12.43;;;;;;;2.32;79.50;95167.34;5052624;28;20235;-85
2022/03/02 06:44:56;;;;;;;21.35;15.00;;;;;;;2.31;78.03;95169.06;5054172;28;20443;-85
2022/03/02 06:47:27;;;;;;;21.10;13.10;;;;;;;2.33;78.99;95169.00;5053238;28;20653;-85
2022/03/02 06:50:06;;;;;;;20.23;12.90;;;;;;;2.16;80.45;95165.47;5053439;28;20432;-86
2022/03/02 06:52:36;;;;;;;19.80;13.65;;;;;;;2.13;81.29;95159.59;5036371;28;20434;-84
2022/03/02 06:55:06;;;;;;;25.33;14.50;;;;;;;2.20;80.09;95168.75;5054146;28;20211;-84
2022/03/02 06:57:35;;;;;;;19.07;13.73;;;;;;;2.29;80.22;95170.88;5053486;28;20290;-83
2022/03/02 07:00:09;;;;;;;18.27;12.55;;;;;;;2.19;79.38;95167.06;5055607;28;20452;-85
2022/03/02 07:02:40;;;;;;;15.27;11.90;;;;;;;2.20;80.34;95165.31;5061387;28;20229;-85
2022/03/02 07:05:09;;;;;;;21.95;16.02;;;;;;;2.17;81.15;95166.31;5058501;28;20247;-84
2022/03/02 07:07:37;;;;;;;25.60;14.80;;;;;;;2.22;81.78;95159.16;5056796;28;20209;-84
2022/03/02 07:10:05;;;;;;;22.23;14.80;;;;;;;2.22;80.53;95151.38;5056903;28;20200;-85
2022/03/02 07:12:34;;;;;;;25.55;16.30;;;;;;;2.21;80.56;95154.88;5056955;28;20646;-85
2022/03/02 07:21:47;;;;;;;22.70;13.50;;;;;;;2.58;80.07;95153.09;5055187;28;20436;-84
2022/03/02 07:24:17;;;;;;;21.37;13.97;;;;;;;2.77;79.95;95148.69;5057581;28;20496;-85
2022/03/02 07:26:46;;;;;;;31.53;17.40;;;;;;;2.63;77.91;95153.72;5056599;28;20459;-84
2022/03/02 07:29:16;;;;;;;22.40;15.80;;;;;;;2.70;78.34;95142.13;5056513;28;20870;-84
2022/03/02 07:31:43;;;;;;;23.30;15.40;;;;;;;2.83;77.71;95148.38;5058822;28;20459;-85
2022/03/02 07:34:13;;;;;;;20.67;13.67;;;;;;;2.88;78.25;95130.00;5056547;28;20464;-85
2022/03/02 07:36:41;;;;;;;21.77;13.80;;;;;;;3.01;77.87;95150.03;5056151;28;20445;-84
2022/03/02 07:39:09;;;;;;;23.13;14.67;;;;;;;3.01;78.44;95142.25;5056103;28;20436;-85
2022/03/02 07:41:36;;;;;;;25.07;15.57;;;;;;;3.04;77.56;95144.69;5055891;28;20448;-85
2022/03/02 07:44:04;;;;;;;23.23;15.33;;;;;;;2.94;77.65;95138.31;5061701;28;21034;-85
2022/03/02 07:46:33;;;;;;;24.70;14.83;;;;;;;2.94;77.41;95145.25;5075128;28;20475;-85
2022/03/02 07:49:00;;;;;;;23.00;13.97;;;;;;;3.00;77.69;95148.34;5076060;28;20868;-85
2022/03/02 07:51:27;;;;;;;26.73;15.30;;;;;;;2.93;76.62;95131.44;5072686;28;20900;-85
2022/03/02 07:54:00;;;;;;;31.30;19.27;;;;;;;2.88;77.26;95140.34;5075183;28;20778;-85
2022/03/02 07:56:29;;;;;;;31.00;17.27;;;;;;;2.78;77.85;95134.81;5073077;28;20467;-86
2022/03/02 07:59:02;;;;;;;27.40;16.03;;;;;;;2.70;78.25;95136.97;5075341;28;20428;-85
2022/03/02 08:01:29;;;;;;;25.00;14.40;;;;;;;2.78;79.32;95133.06;5075764;28;20494;-85
2022/03/02 08:03:59;;;;;;;28.07;18.00;;;;;;;2.79;79.46;95131.31;5075665;28;20457;-85
2022/03/02 08:06:26;;;;;;;27.33;18.93;;;;;;;2.73;78.46;95129.03;5075210;28;20458;-85
2022/03/02 08:08:54;;;;;;;27.50;15.93;;;;;;;2.70;79.25;95124.00;5073628;28;20942;-85
2022/03/02 08:11:22;;;;;;;30.57;14.73;;;;;;;2.80;78.85;95130.38;5073541;28;20938;-85
2022/03/02 08:13:49;;;;;;;28.33;20.20;;;;;;;2.87;78.88;95128.31;5075477;28;20439;-84
2022/03/02 08:16:16;;;;;;;30.27;19.00;;;;;;;2.90;78.64;95133.38;5075682;28;20436;-83
2022/03/02 08:18:43;;;;;;;32.50;17.30;;;;;;;2.78;78.34;95120.09;5075383;28;20918;-84
2022/03/02 08:21:30;;;;;;;26.90;17.23;;;;;;;2.75;79.29;95122.00;5075304;28;20452;-83
2022/03/02 08:23:58;;;;;;;34.37;20.17;;;;;;;2.69;78.97;95115.38;5076923;28;20498;-84
2022/03/02 08:26:26;;;;;;;28.80;17.80;;;;;;;2.57;79.67;95118.59;5075157;28;20886;-84
2022/03/02 08:28:56;;;;;;;25.60;18.10;;;;;;;2.59;79.79;95115.91;5075152;28;20468;-84
2022/03/02 08:31:24;;;;;;;27.13;17.97;;;;;;;2.61;80.33;95114.94;5075506;28;20475;-84
2022/03/02 08:33:52;;;;;;;29.60;16.60;;;;;;;2.49;80.52;95111.19;5039928;28;20938;-84
2022/03/02 08:36:21;;;;;;;30.20;17.67;;;;;;;2.44;80.85;95108.00;5075002;28;20447;-84
2022/03/02 08:38:51;;;;;;;26.50;16.27;;;;;;;2.48;80.32;95109.53;5075475;28;20436;-85
2022/03/02 08:41:20;;;;;;;27.13;16.27;;;;;;;2.65;80.12;95105.28;5075118;28;20975;-85
2022/03/02 08:43:47;;;;;;;28.60;18.50;;;;;;;2.72;79.51;95085.91;5074573;28;20498;-85
2022/03/02 08:46:15;;;;;;;54.23;24.33;;;;;;;3.03;80.23;95105.88;5074422;28;20450;-84
2022/03/02 08:48:42;;;;;;;41.23;23.30;;;;;;;3.22;79.21;95088.47;5075152;28;20471;-85
2022/03/02 08:51:09;;;;;;;47.77;29.67;;;;;;;3.38;77.47;95093.66;5074569;28;20443;-85
2022/03/02 08:53:40;;;;;;;46.53;25.73;;;;;;;3.59;77.47;95100.28;5075251;28;20444;-85
2022/03/02 08:56:09;;;;;;;104.73;47.47;;;;;;;3.61;75.85;95097.59;5075296;28;20448;-85
2022/03/02 08:58:38;;;;;;;35.70;23.00;;;;;;;3.57;75.90;95094.34;5075858;28;20452;-85
2022/03/02 09:01:05;;;;;;;39.83;24.97;;;;;;;3.61;75.31;95088.06;5074718;28;20517;-85
2022/03/02 09:03:34;;;;;;;35.60;20.93;;;;;;;3.76;74.91;95093.31;5074052;28;20491;-85
2022/03/02 09:06:04;;;;;;;32.20;18.83;;;;;;;3.58;75.74;95080.44;5073693;28;20448;-87
2022/03/02 09:08:34;;;;;;;28.33;17.80;;;;;;;3.64;75.75;95087.06;5074255;28;20437;-84
2022/03/02 09:11:01;;;;;;;37.67;21.30;;;;;;;3.74;75.66;95068.28;5074551;28;20448;-86
2022/03/02 09:13:29;;;;;;;34.00;23.80;;;;;;;3.82;75.03;95065.28;5074315;28;20442;-85
2022/03/02 09:15:57;;;;;;;29.37;20.77;;;;;;;3.91;74.65;95066.53;5074235;28;20456;-85
2022/03/02 09:18:24;;;;;;;26.27;16.93;;;;;;;3.76;73.54;95064.78;5074975;28;20433;-85
2022/03/02 09:24:13;;;;;;;38.90;18.70;;;;;;;3.77;74.34;95069.91;5072753;28;20537;-83
2022/03/02 09:26:42;;;;;;;28.57;17.93;;;;;;;3.73;74.75;95061.44;5074187;28;20527;-83
2022/03/02 09:29:10;;;;;;;25.77;17.30;;;;;;;3.72;74.88;95059.75;5073917;28;20445;-83
2022/03/02 09:31:37;;;;;;;25.13;17.03;;;;;;;3.78;74.66;95055.19;5034067;28;21265;-84
2022/03/02 09:34:08;;;;;;;31.63;18.50;;;;;;;3.89;74.26;95050.22;5034538;28;20439;-84
2022/03/02 09:36:37;;;;;;;30.53;19.40;;;;;;;3.90;73.19;95057.06;5034087;28;20825;-84
2022/03/02 09:39:05;;;;;;;32.53;19.33;;;;;;;3.99;73.83;95056.53;5033971;28;20434;-84
2022/03/02 09:41:48;;;;;;;25.93;17.97;;;;;;;4.05;73.40;95048.44;5034047;28;20445;-85
2022/03/02 09:47:02;;;;;;;33.87;18.30;;;;;;;4.19;73.66;95045.88;5035129;28;20438;-81
2022/03/02 09:49:31;;;;;;;27.90;19.50;;;;;;;4.39;71.40;95043.91;5033519;28;20454;-86
2022/03/02 09:52:06;;;;;;;26.77;18.27;;;;;;;4.71;71.54;95042.84;5048217;28;20439;-83
2022/03/02 09:54:37;;;;;;;39.13;23.10;;;;;;;5.17;70.96;95045.25;5033702;28;20442;-80
2022/03/02 09:57:06;;;;;;;32.07;20.97;;;;;;;5.38;69.00;95035.28;5034026;28;20851;-84
2022/03/02 09:59:37;;;;;;;34.87;21.13;;;;;;;5.52;67.78;95023.09;5033320;28;20507;-83
2022/03/02 10:02:06;;;;;;;24.67;17.30;;;;;;;5.57;66.40;95028.00;5033569;28;20423;-83
2022/03/02 10:04:35;;;;;;;36.17;21.47;;;;;;;5.59;67.98;95029.59;5033292;28;20961;-79
2022/03/02 10:09:49;;;;;;;32.50;21.07;;;;;;;6.01;66.41;95022.59;5033327;28;20443;-83
2022/03/02 10:12:17;;;;;;;54.50;32.13;;;;;;;6.12;66.09;95014.09;5033662;28;20454;-85
2022/03/02 10:14:46;;;;;;;47.33;25.70;;;;;;;5.95;64.19;95012.56;5033655;28;20894;-85
2022/03/02 10:17:18;;;;;;;43.97;24.47;;;;;;;5.58;64.43;95007.09;5033535;28;20941;-84
2022/03/02 10:19:53;;;;;;;23.17;16.67;;;;;;;5.26;65.35;94998.72;5033406;28;20554;-84
2022/03/02 10:22:44;;;;;;;26.53;15.70;;;;;;;5.14;64.53;94998.63;5033599;28;20442;-85
2022/03/02 10:25:18;;;;;;;24.13;14.23;;;;;;;4.93;65.60;95009.44;5033811;28;20824;-86
2022/03/02 10:27:58;;;;;;;27.00;17.20;;;;;;;4.93;66.38;94996.44;5033541;28;20442;-85
2022/03/02 10:30:32;;;;;;;25.13;16.40;;;;;;;5.02;66.19;94999.38;5054128;28;20511;-85
2022/03/02 10:33:17;;;;;;;30.23;18.33;;;;;;;5.01;66.12;94993.34;5073157;28;20433;-84
2022/03/02 10:35:52;;;;;;;30.40;17.83;;;;;;;5.03;67.39;94988.06;5075794;28;20436;-82
2022/03/02 10:38:28;;;;;;;23.77;14.80;;;;;;;4.85;65.25;94983.03;5077216;28;20432;-86
2022/03/02 10:41:00;;;;;;;21.63;14.80;;;;;;;4.56;65.42;94969.22;5077248;28;20437;-85
2022/03/02 10:43:39;;;;;;;33.77;19.90;;;;;;;4.69;66.93;94974.50;5076992;28;21080;-85
2022/03/02 10:46:10;;;;;;;23.57;16.50;;;;;;;4.89;67.16;94976.72;5077495;28;20443;-86
2022/03/02 10:48:42;;;;;;;26.97;18.73;;;;;;;5.10;67.79;94971.97;5077241;28;20433;-85
2022/03/02 10:51:11;;;;;;;31.23;16.60;;;;;;;5.17;66.39;94956.81;5077254;28;20614;-86
2022/03/02 10:53:41;;;;;;;27.10;15.47;;;;;;;5.28;66.56;94951.78;5077206;28;20441;-86
2022/03/02 10:56:09;;;;;;;25.23;16.10;;;;;;;5.42;65.76;94953.50;5077443;28;20457;-85
2022/03/02 10:58:39;;;;;;;24.93;17.30;;;;;;;5.46;64.90;94950.59;5077919;28;20896;-85
2022/03/02 11:01:07;;;;;;;25.10;16.27;;;;;;;5.43;65.31;94936.94;5078225;28;20440;-87
2022/03/02 11:03:37;;;;;;;23.13;16.00;;;;;;;5.32;64.54;94939.41;5076842;28;20476;-85
2022/03/02 11:06:06;;;;;;;24.83;16.00;;;;;;;5.34;64.58;94933.19;5077563;28;20433;-85
2022/03/02 11:08:35;;;;;;;25.77;16.60;;;;;;;5.39;65.36;94930.28;5079540;28;20437;-86
2022/03/02 11:11:02;;;;;;;28.70;16.40;;;;;;;5.31;65.11;94922.13;5077259;28;20456;-87
2022/03/02 11:13:29;;;;;;;24.10;17.90;;;;;;;5.42;66.10;94917.91;5077012;28;20449;-86
2022/03/02 11:15:59;;;;;;;20.73;14.60;;;;;;;5.38;67.07;94924.25;5076784;28;20456;-78
2022/03/02 11:18:36;;;;;;;24.57;16.73;;;;;;;5.28;65.65;94915.38;5074945;28;20447;-85
2022/03/02 11:21:05;;;;;;;30.03;15.97;;;;;;;5.14;64.70;94905.81;5076055;28;20440;-83
2022/03/02 11:23:41;;;;;;;31.33;17.83;;;;;;;4.91;66.82;94907.25;5057886;28;20516;-87
2022/03/02 11:26:11;;;;;;;36.97;19.20;;;;;;;5.09;66.86;94896.66;5057107;28;20499;-85
2022/03/02 11:28:38;;;;;;;26.77;18.27;;;;;;;5.05;65.89;94887.38;5061227;28;20444;-90
2022/03/02 11:31:07;;;;;;;27.27;17.80;;;;;;;5.05;66.29;94893.41;5078469;28;20472;-84
2022/03/02 11:33:36;;;;;;;26.33;18.00;;;;;;;5.20;65.98;94888.97;5076846;28;20445;-86
2022/03/02 11:36:09;;;;;;;24.57;16.77;;;;;;;5.36;65.07;94881.03;5077190;28;20794;-87
2022/03/02 11:38:40;;;;;;;20.50;15.30;;;;;;;5.39;63.51;94875.63;5073116;28;20956;-84
2022/03/02 11:41:09;;;;;;;23.60;16.07;;;;;;;5.30;64.05;94874.47;5057602;28;20434;-82
2022/03/02 11:43:36;;;;;;;23.40;16.67;;;;;;;5.38;64.56;94873.97;5057860;28;20480;-85
2022/03/02 11:46:06;;;;;;;26.70;15.10;;;;;;;5.36;62.71;94866.28;5061821;28;20948;-87
2022/03/02 11:48:37;;;;;;;23.30;16.13;;;;;;;5.28;63.09;94866.78;5056686;28;20460;-86
2022/03/02 11:51:20;;;;;;;24.70;15.87;;;;;;;5.47;65.48;94863.78;5056863;28;20879;-85
2022/03/02 11:53:51;;;;;;;21.67;15.60;;;;;;;5.63;64.80;94855.00;5063191;28;20463;-85
2022/03/02 11:56:20;;;;;;;19.47;14.83;;;;;;;5.51;62.46;94844.47;5076613;28;20425;-85
2022/03/02 11:58:58;;;;;;;22.77;15.27;;;;;;;5.63;63.94;94850.63;5076585;28;20517;-82
2022/03/02 12:01:27;;;;;;;24.20;15.50;;;;;;;5.77;64.29;94847.09;5076148;28;20448;-79
2022/03/02 12:03:59;;;;;;;23.90;15.50;;;;;;;6.06;67.35;94845.16;5076200;28;20488;-80
2022/03/02 12:06:29;;;;;;;26.83;17.83;;;;;;;6.07;61.59;94846.81;5076741;28;20440;-81
2022/03/02 12:08:57;;;;;;;20.40;14.60;;;;;;;5.93;59.66;94845.16;5076265;28;20523;-80
2022/03/02 12:11:26;;;;;;;21.13;15.33;;;;;;;5.84;61.56;94817.13;5076417;28;20448;-79
2022/03/02 12:14:04;;;;;;;20.83;15.07;;;;;;;5.94;61.43;94833.81;5077147;28;20421;-83
2022/03/02 12:16:42;;;;;;;22.83;13.60;;;;;;;6.21;63.67;94820.69;5078797;28;20509;-83
2022/03/02 12:19:28;;;;;;;21.50;14.10;;;;;;;6.31;60.26;94823.47;5077898;28;20784;-82
2022/03/02 12:22:03;;;;;;;20.20;13.57;;;;;;;6.37;60.24;94812.66;5076758;28;20441;-83
2022/03/02 12:24:32;;;;;;;18.87;12.90;;;;;;;6.33;58.66;94812.00;5077190;28;20476;-82
2022/03/02 12:27:04;;;;;;;17.30;11.93;;;;;;;6.49;58.41;94811.78;5078655;28;20451;-83
2022/03/02 12:29:32;;;;;;;18.60;13.13;;;;;;;6.53;58.89;94810.63;5076992;28;20484;-83
2022/03/02 12:32:11;;;;;;;18.43;13.17;;;;;;;6.42;56.31;94807.94;5076449;28;20441;-83
2022/03/02 12:34:39;;;;;;;19.83;13.80;;;;;;;6.42;58.96;94803.56;5076137;28;20470;-83
2022/03/02 12:37:09;;;;;;;18.37;13.40;;;;;;;6.42;58.51;94802.72;5076806;28;20456;-82
2022/03/02 12:39:37;;;;;;;17.13;11.50;;;;;;;6.33;57.73;94804.19;5059590;28;20441;-83
2022/03/02 12:42:07;;;;;;;23.93;13.63;;;;;;;6.46;59.66;94801.56;5076682;28;21010;-83
2022/03/02 12:44:36;;;;;;;24.97;13.90;;;;;;;6.55;58.06;94798.31;5076553;28;20484;-83
2022/03/02 12:47:06;;;;;;;20.97;14.53;;;;;;;6.56;59.49;94794.75;5075348;28;20451;-82
2022/03/02 12:49:35;;;;;;;21.43;13.47;;;;;;;6.56;58.44;94783.50;5075889;28;20453;-83
2022/03/02 12:52:03;;;;;;;19.73;13.57;;;;;;;6.45;57.55;94787.72;5075626;28;20842;-87
2022/03/02 12:54:33;;;;;;;20.80;14.30;;;;;;;6.58;57.57;94786.84;5077495;28;20831;-82
2022/03/02 12:57:02;;;;;;;20.87;12.57;;;;;;;6.60;57.76;94785.78;5074303;28;20441;-82
2022/03/02 12:59:30;;;;;;;19.30;12.73;;;;;;;6.55;56.34;94779.22;5073610;28;20532;-78
2022/03/02 13:01:58;;;;;;;21.53;13.30;;;;;;;6.47;55.90;94785.00;5073756;28;20441;-84
2022/03/02 13:04:31;;;;;;;19.60;12.83;;;;;;;6.38;57.53;94780.44;5074336;28;20472;-85
2022/03/02 13:07:06;;;;;;;23.83;14.10;;;;;;;6.32;57.41;94770.41;5052886;28;21394;-80
2022/03/02 13:09:41;;;;;;;20.60;12.70;;;;;;;6.15;57.22;94764.63;5073333;28;20498;-83
2022/03/02 13:12:29;;;;;;;18.97;13.17;;;;;;;6.15;57.95;94769.84;5073786;28;20437;-81
2022/03/02 13:14:56;;;;;;;13.33;10.60;;;;;;;5.99;57.58;94758.81;5074358;28;20486;-84
2022/03/02 13:17:24;;;;;;;19.70;11.93;;;;;;;6.02;56.96;94769.00;5074540;28;20456;-83
2022/03/02 13:19:54;;;;;;;23.77;15.53;;;;;;;5.93;57.47;94772.25;5074218;28;20433;-83
2022/03/02 13:22:26;;;;;;;18.03;11.97;;;;;;;5.77;57.18;94768.97;5073753;28;20441;-84
2022/03/02 13:24:56;;;;;;;22.07;13.47;;;;;;;5.63;58.03;94772.53;5073631;28;20480;-82
2022/03/02 13:27:25;;;;;;;25.10;16.30;;;;;;;5.54;58.70;94771.38;5074848;28;20449;-84
2022/03/02 13:29:59;;;;;;;24.07;13.53;;;;;;;5.44;59.77;94761.69;5073776;28;20955;-85
2022/03/02 13:33:07;;;;;;;17.77;13.53;;;;;;;5.27;59.79;94766.25;5073855;28;20444;-85
2022/03/02 13:35:37;;;;;;;18.80;13.80;;;;;;;5.22;61.22;94757.91;5073493;28;20437;-82
2022/03/02 13:38:09;;;;;;;24.50;15.67;;;;;;;5.05;60.84;94757.34;5073668;28;20911;-85